createdAt,value
2022-09-05T00:00:32.296Z,2.80
2022-09-05T00:04:25.776Z,2.70
2022-09-05T00:08:21.086Z,2.70
2022-09-05T00:12:10.465Z,2.60
2022-09-05T00:16:07.146Z,2.70
2022-09-05T00:24:21.740Z,2.80
2022-09-05T00:24:45.618Z,2.80
2022-09-05T00:28:33.896Z,2.70
2022-09-05T00:32:49.288Z,2.80
2022-09-05T00:36:41.821Z,2.40
2022-09-05T00:40:34.350Z,2.30
2022-09-05T00:44:33.053Z,3.00
2022-09-05T00:48:35.016Z,2.50
2022-09-05T00:52:50.475Z,2.50
2022-09-05T00:57:28.382Z,2.70
2022-09-05T01:01:30.584Z,2.50
2022-09-05T01:05:32.795Z,2.50
2022-09-05T01:09:46.711Z,2.50
2022-09-05T01:13:42.107Z,2.30
2022-09-05T01:17:39.569Z,2.60
2022-09-05T01:22:10.181Z,2.70
2022-09-05T01:26:10.212Z,2.50
2022-09-05T01:30:05.996Z,2.60
2022-09-05T01:33:58.370Z,2.40
2022-09-05T01:37:54.498Z,2.20
2022-09-05T01:42:00.484Z,2.30
2022-09-05T01:45:53.839Z,2.50
2022-09-05T01:49:55.641Z,2.50
2022-09-05T01:54:10.169Z,2.50
2022-09-05T01:58:21.455Z,2.40
2022-09-05T02:02:22.650Z,2.90
2022-09-05T02:06:35.752Z,2.10
2022-09-05T02:10:41.565Z,2.10
2022-09-05T02:14:42.310Z,2.70
2022-09-05T02:18:39.197Z,2.00
2022-09-05T02:22:29.725Z,2.10
2022-09-05T02:26:31.088Z,2.20
2022-09-05T02:30:27.819Z,2.40
2022-09-05T02:42:17.166Z,1.90
2022-09-05T02:45:10.683Z,2.10
2022-09-05T02:46:51.000Z,2.10
2022-09-05T02:53:46.956Z,2.30
2022-09-05T02:57:42.652Z,2.00
2022-09-05T02:59:13.218Z,2.20
2022-09-05T03:03:18.597Z,2.20
2022-09-05T03:07:15.979Z,2.40
2022-09-05T03:11:27.472Z,1.50
2022-09-05T03:15:45.066Z,2.40
2022-09-05T03:20:08.042Z,2.20
2022-09-05T03:24:12.646Z,2.30
2022-09-05T03:28:36.334Z,2.50
2022-09-05T03:32:53.203Z,2.40
2022-09-05T03:37:38.444Z,2.00
2022-09-05T03:41:40.460Z,2.50
2022-09-05T03:45:54.753Z,2.20
2022-09-05T03:57:07.576Z,2.40
2022-09-05T03:57:13.298Z,2.20
2022-09-05T03:59:07.216Z,2.00
2022-09-05T04:08:09.386Z,1.90
2022-09-05T04:08:30.602Z,2.10
2022-09-05T04:11:37.732Z,1.70
2022-09-05T04:15:34.312Z,2.20
2022-09-05T04:19:26.966Z,1.40
2022-09-05T04:23:31.102Z,1.90
2022-09-05T04:27:36.648Z,2.10
2022-09-05T04:31:31.795Z,2.00
2022-09-05T04:35:35.275Z,1.70
2022-09-05T04:39:30.515Z,1.90
2022-09-05T04:43:27.542Z,2.10
2022-09-05T04:47:17.032Z,2.10
2022-09-05T04:51:11.466Z,2.00
2022-09-05T04:55:03.220Z,1.60
2022-09-05T05:01:56.028Z,1.90
2022-09-05T05:06:10.850Z,1.50
2022-09-05T05:07:18.195Z,1.70
2022-09-05T05:14:45.867Z,1.70
2022-09-05T05:18:15.467Z,1.70
2022-09-05T05:19:29.419Z,2.00
2022-09-05T05:23:18.052Z,1.90
2022-09-05T05:27:11.068Z,1.90
2022-09-05T05:31:01.259Z,2.30
2022-09-05T05:34:49.993Z,2.10
2022-09-05T05:38:45.113Z,2.30
2022-09-05T05:42:29.598Z,2.10
2022-09-05T05:46:24.512Z,1.60
2022-09-05T05:50:19.710Z,1.60
2022-09-05T05:54:15.385Z,1.70
2022-09-05T05:58:15.307Z,1.30
2022-09-05T06:02:34.674Z,1.70
2022-09-05T06:06:33.776Z,1.60
2022-09-05T06:15:03.764Z,1.50
2022-09-05T06:15:28.094Z,1.70
2022-09-05T06:19:43.640Z,1.30
2022-09-05T06:24:40.111Z,1.60
2022-09-05T06:28:37.891Z,1.50
2022-09-05T06:32:36.728Z,1.30
2022-09-05T06:36:44.002Z,1.60
2022-09-05T06:40:34.488Z,1.40
2022-09-05T06:44:40.294Z,1.60
2022-09-05T06:48:44.333Z,1.70
2022-09-05T06:53:08.288Z,1.40
2022-09-05T06:57:21.407Z,1.40
2022-09-05T07:01:08.773Z,1.40
2022-09-05T07:05:36.891Z,1.50
2022-09-05T07:09:23.638Z,1.70
2022-09-05T07:13:19.695Z,1.40
2022-09-05T07:17:11.051Z,1.50
2022-09-05T07:21:16.471Z,1.50
2022-09-05T07:25:08.624Z,1.60
2022-09-05T07:28:59.710Z,1.40
2022-09-05T07:32:45.888Z,1.30
2022-09-05T07:36:39.770Z,1.20
2022-09-05T07:40:26.939Z,1.20
2022-09-05T07:44:17.302Z,1.20
2022-09-05T07:48:09.941Z,1.20
2022-09-05T07:56:48.159Z,1.40
2022-09-05T07:57:02.241Z,1.30
2022-09-05T08:00:27.143Z,1.20
2022-09-05T08:04:23.678Z,1.30
2022-09-05T08:08:14.323Z,1.50
2022-09-05T08:12:09.625Z,1.60
2022-09-05T08:16:13.158Z,1.20
2022-09-05T08:20:10.569Z,1.10
2022-09-05T08:24:00.046Z,1.50
2022-09-05T08:27:58.847Z,1.40
2022-09-05T08:31:49.292Z,1.40
2022-09-05T08:35:39.684Z,1.20
2022-09-05T08:39:26.714Z,1.10
2022-09-05T08:44:39.419Z,1.30
2022-09-05T08:47:45.602Z,0.90
2022-09-05T08:51:41.839Z,1.30
2022-09-05T08:55:46.681Z,0.90
2022-09-05T09:00:19.299Z,1.30
2022-09-05T09:04:11.411Z,1.00
2022-09-05T09:08:04.144Z,1.40
2022-09-05T09:11:56.184Z,1.30
2022-09-05T09:15:47.683Z,1.40
2022-09-05T09:19:46.709Z,1.40
2022-09-05T09:23:46.262Z,1.10
2022-09-05T09:32:00.028Z,1.10
2022-09-05T09:35:51.247Z,1.50
2022-09-05T09:39:53.264Z,1.40
2022-09-05T09:43:58.349Z,1.20
2022-09-05T09:48:06.285Z,1.20
2022-09-05T09:52:02.427Z,1.50
2022-09-05T09:56:27.561Z,1.60
2022-09-05T10:00:21.468Z,1.20
2022-09-05T10:04:21.829Z,1.20
2022-09-05T10:10:47.955Z,5.50
2022-09-05T10:13:21.386Z,5.20
2022-09-05T10:17:36.350Z,4.20
2022-09-05T10:21:36.652Z,1.90
2022-09-05T10:25:33.783Z,1.40
2022-09-05T10:29:39.242Z,1.30
2022-09-05T10:35:17.163Z,1.90
2022-09-05T10:37:45.778Z,1.60
2022-09-05T10:41:41.133Z,1.30
2022-09-05T10:45:38.252Z,5.40
2022-09-05T10:49:30.261Z,1.10
2022-09-05T10:53:39.794Z,0.80
2022-09-05T10:57:38.173Z,0.90
2022-09-05T11:02:30.157Z,0.70
2022-09-05T11:05:40.236Z,0.60
2022-09-05T11:09:40.259Z,1.00
2022-09-05T11:13:44.421Z,0.70
2022-09-05T11:17:35.877Z,0.70
2022-09-05T11:21:27.310Z,0.80
2022-09-05T11:25:36.213Z,0.70
2022-09-05T11:29:33.339Z,0.50
2022-09-05T11:39:45.558Z,0.80
2022-09-05T11:40:08.917Z,0.70
2022-09-05T11:42:50.833Z,1.10
2022-09-05T11:46:42.259Z,0.80
2022-09-05T11:51:02.088Z,0.60
2022-09-05T11:55:25.735Z,0.90
2022-09-05T11:59:33.138Z,0.80
2022-09-05T12:03:59.845Z,0.50
2022-09-05T12:08:01.972Z,1.10
2022-09-05T12:12:06.265Z,0.70
2022-09-05T12:16:10.380Z,0.70
2022-09-05T12:20:06.043Z,1.10
2022-09-05T12:25:15.182Z,0.60
2022-09-05T12:29:28.119Z,0.70
2022-09-05T12:33:58.432Z,0.50
2022-09-05T12:40:03.080Z,0.40
2022-09-05T12:41:42.624Z,0.60
2022-09-05T12:45:10.320Z,0.50
2022-09-05T12:49:07.046Z,0.80
2022-09-05T12:52:59.878Z,0.40
2022-09-05T13:00:24.264Z,0.50
2022-09-05T13:03:04.852Z,0.60
2022-09-05T13:05:17.981Z,0.70
2022-09-05T13:09:08.343Z,0.40
2022-09-05T13:14:55.596Z,0.50
2022-09-05T13:17:02.368Z,0.60
2022-09-05T13:20:51.633Z,0.40
2022-09-05T13:24:41.526Z,0.40
2022-09-05T13:28:30.362Z,0.50
2022-09-05T13:38:10.787Z,0.40
2022-09-05T13:38:28.924Z,0.60
2022-09-05T13:40:44.739Z,0.90
2022-09-05T13:44:36.037Z,0.60
2022-09-05T13:49:23.923Z,0.40
2022-09-05T13:52:43.686Z,0.50
2022-09-05T13:56:31.238Z,0.60
2022-09-05T14:01:17.767Z,0.60
2022-09-05T14:05:21.231Z,0.80
2022-09-05T14:13:26.738Z,0.70
2022-09-05T14:21:39.292Z,0.70
2022-09-05T14:25:28.996Z,0.50
2022-09-05T14:29:20.400Z,0.70
2022-09-05T14:37:39.709Z,0.70
2022-09-05T14:37:55.237Z,0.40
2022-09-05T14:41:35.199Z,0.60
2022-09-05T14:45:19.995Z,0.50
2022-09-05T14:49:15.576Z,1.00
2022-09-05T15:01:46.233Z,0.60
2022-09-05T15:02:42.232Z,0.70
2022-09-05T15:04:48.309Z,0.70
2022-09-05T15:10:51.088Z,0.60
2022-09-05T15:12:33.045Z,0.50
2022-09-05T15:16:13.109Z,0.70
2022-09-05T15:20:05.228Z,0.80
2022-09-05T15:23:36.352Z,0.40
2022-09-05T15:30:36.049Z,0.50
2022-09-05T15:34:26.400Z,0.40
2022-09-05T15:37:53.258Z,0.70
2022-09-05T15:41:23.070Z,0.50
2022-09-05T15:45:09.111Z,0.60
2022-09-05T15:48:39.994Z,0.30
2022-09-05T15:52:29.451Z,0.50
2022-09-05T15:59:35.389Z,2.60
2022-09-05T16:04:28.694Z,1.20
2022-09-05T16:10:35.221Z,0.70
2022-09-05T16:11:06.106Z,0.70
2022-09-05T16:14:39.579Z,0.70
2022-09-05T16:23:20.371Z,1.10
2022-09-05T16:23:24.621Z,0.80
2022-09-05T16:25:56.200Z,0.70
2022-09-05T16:29:27.039Z,0.60
2022-09-05T16:32:59.455Z,0.70
2022-09-05T16:36:29.753Z,0.50
2022-09-05T16:40:04.688Z,0.80
2022-09-05T16:43:34.850Z,1.20
2022-09-05T16:47:13.945Z,0.60
2022-09-05T16:50:48.022Z,1.00
2022-09-05T16:54:25.608Z,0.70
2022-09-05T16:58:08.915Z,0.70
2022-09-05T17:02:07.066Z,0.90
2022-09-05T17:05:46.063Z,1.00
2022-09-05T17:09:24.433Z,0.50
2022-09-05T17:12:55.917Z,1.00
2022-09-05T17:16:31.253Z,0.90
2022-09-05T17:20:05.932Z,1.00
2022-09-05T17:29:21.066Z,1.00
2022-09-05T17:29:31.265Z,1.10
2022-09-05T17:35:18.623Z,1.10
2022-09-05T17:38:58.593Z,1.20
2022-09-05T17:42:39.125Z,1.10
2022-09-05T17:46:18.417Z,1.20
2022-09-05T17:49:47.513Z,1.00
2022-09-05T17:53:25.291Z,1.40
2022-09-05T17:56:54.852Z,1.40
2022-09-05T18:01:01.152Z,1.40
2022-09-05T18:04:48.422Z,1.50
2022-09-05T18:08:52.622Z,1.60
2022-09-05T18:13:14.222Z,1.60
2022-09-05T18:16:42.204Z,1.50
2022-09-05T18:20:25.882Z,1.60
2022-09-05T18:24:05.169Z,1.40
2022-09-05T18:28:05.464Z,1.60
2022-09-05T18:32:03.106Z,1.10
2022-09-05T18:35:37.560Z,1.00
2022-09-05T18:39:48.459Z,1.30
2022-09-05T18:43:32.112Z,1.00
2022-09-05T18:47:02.457Z,1.20
2022-09-05T18:50:33.227Z,1.30
2022-09-05T18:54:03.618Z,1.30
2022-09-05T18:57:38.281Z,1.80
2022-09-05T19:01:28.330Z,1.20
2022-09-05T19:04:59.589Z,1.10
2022-09-05T19:08:34.847Z,1.50
2022-09-05T19:12:33.123Z,1.50
2022-09-05T19:16:33.214Z,1.30
2022-09-05T19:20:31.898Z,1.20
2022-09-05T19:24:05.196Z,1.40
2022-09-05T19:30:53.713Z,1.40
2022-09-05T19:37:03.610Z,1.60
2022-09-05T19:37:05.307Z,1.40
2022-09-05T19:40:11.220Z,1.70
2022-09-05T19:47:29.203Z,1.80
2022-09-05T19:47:48.039Z,1.70
2022-09-05T19:50:24.927Z,1.30
2022-09-05T19:54:03.952Z,2.40
2022-09-05T19:57:32.876Z,1.60
2022-09-05T20:01:13.479Z,1.80
2022-09-05T20:04:46.850Z,1.70
2022-09-05T20:08:29.341Z,1.60
2022-09-05T20:11:58.233Z,1.60
2022-09-05T20:15:35.893Z,1.40
2022-09-05T20:19:06.725Z,1.30
2022-09-05T20:22:48.234Z,1.40
2022-09-05T20:26:21.406Z,1.30
2022-09-05T20:29:55.694Z,1.20
2022-09-05T20:33:28.041Z,1.20
2022-09-05T20:42:21.905Z,1.50
2022-09-05T20:43:21.001Z,1.50
2022-09-05T20:44:42.401Z,1.30
2022-09-05T20:53:03.602Z,1.30
2022-09-05T20:54:15.842Z,1.20
2022-09-05T20:55:49.524Z,1.10
2022-09-05T20:59:26.085Z,1.10
2022-09-05T21:03:01.048Z,1.40
2022-09-05T21:06:33.775Z,1.20
2022-09-05T21:10:02.762Z,1.40
2022-09-05T21:13:32.206Z,1.30
2022-09-05T21:17:14.714Z,1.20
2022-09-05T21:20:52.140Z,1.30
2022-09-05T21:24:25.364Z,1.30
2022-09-05T21:28:04.152Z,1.00
2022-09-05T21:31:30.912Z,1.10
2022-09-05T21:34:58.087Z,1.70
2022-09-05T21:38:32.835Z,1.30
2022-09-05T21:42:18.586Z,1.30
2022-09-05T21:47:43.541Z,1.30
2022-09-05T21:49:36.816Z,1.50
2022-09-05T21:53:14.562Z,1.60
2022-09-05T21:59:26.346Z,1.30
2022-09-05T22:00:44.243Z,1.30
2022-09-05T22:04:11.203Z,1.10
2022-09-05T22:07:39.088Z,1.20
2022-09-05T22:11:06.404Z,1.40
2022-09-05T22:14:33.459Z,1.50
2022-09-05T22:18:27.427Z,1.70
2022-09-05T22:21:49.100Z,1.50
2022-09-05T22:25:27.737Z,1.30
2022-09-05T22:28:54.476Z,1.50
2022-09-05T22:32:34.641Z,1.40
2022-09-05T22:36:02.382Z,1.30
2022-09-05T22:39:36.762Z,1.30
2022-09-05T22:43:08.188Z,1.40
2022-09-05T22:46:35.692Z,1.80
2022-09-05T22:50:02.738Z,1.10
2022-09-05T22:53:29.491Z,1.30
2022-09-05T22:56:56.419Z,1.90
2022-09-05T23:00:23.268Z,1.60
2022-09-05T23:03:49.848Z,2.00
2022-09-05T23:07:16.865Z,1.80
2022-09-05T23:10:44.030Z,2.20
2022-09-05T23:14:10.820Z,1.90
2022-09-05T23:17:38.924Z,1.90
2022-09-05T23:21:07.622Z,1.60
2022-09-05T23:24:34.678Z,2.00
2022-09-05T23:28:05.561Z,2.00
2022-09-05T23:31:32.174Z,2.00
2022-09-05T23:34:59.240Z,2.10
2022-09-05T23:38:26.094Z,1.90
2022-09-05T23:41:53.271Z,1.70
2022-09-05T23:45:20.069Z,1.90
2022-09-05T23:48:46.787Z,2.20
2022-09-05T23:52:13.819Z,2.30
2022-09-05T23:55:41.875Z,2.00
2022-09-05T23:59:08.530Z,2.10
